Flight Track Log - Related Links

Times and Time Zones

All times are in EDT time to prevent confusion due to time zone crossing. See the AWE3921 flight status page for this flight to view local times or setup timezone preferences in your user account.

Time Position Orientation Groundspeed Altitude Reporting Facility
EDT Latitude Longitude Course Direction KTS MPH feet Rate Location/Type
Wed 02:30:00 PM 38.5875 -77.2744 215° Southwest  Level Estimated
Wed 02:31:00 PM 38.4992 -77.3529 215° Southwest  Level Estimated
Wed 02:32:00 PM 38.4109 -77.4312 215° Southwest  Level Estimated
Wed 02:33:00 PM 38.3226 -77.5094 215° Southwest  Level Estimated
Wed 02:34:00 PM 38.2342 -77.5873 215° Southwest  Level Estimated
Wed 02:35:00 PM 38.1457 -77.6650 215° Southwest  Level Estimated
Wed 02:36:00 PM 38.0572 -77.7426 215° Southwest  Level Estimated
Wed 02:37:00 PM 37.9686 -77.8200 215° Southwest  Level Estimated
Wed 02:38:00 PM 37.8800 -77.8972 215° Southwest  Level Estimated
Wed 02:39:00 PM 37.7914 -77.9742 214° Southwest  Level Estimated
Wed 02:40:00 PM 37.7027 -78.0510 214° Southwest  Level Estimated
Wed 02:41:00 PM 37.6139 -78.1276 214° Southwest  Level Estimated
Wed 02:42:00 PM 37.5251 -78.2041 214° Southwest  Level Estimated
Wed 02:43:00 PM 37.4362 -78.2803 214° Southwest  Level Estimated
Wed 02:44:00 PM 37.3473 -78.3564 214° Southwest  Level Estimated
Wed 02:45:00 PM 37.2584 -78.4323 214° Southwest  Level Estimated
Wed 02:46:00 PM 37.1694 -78.5081 214° Southwest  Level Estimated
Wed 02:47:00 PM 37.0803 -78.5836 214° Southwest  Level Estimated
Wed 02:48:00 PM 36.9912 -78.6590 214° Southwest  Level Estimated
Wed 02:49:00 PM 36.9021 -78.7342 214° Southwest  Level Estimated
Wed 02:50:00 PM 36.8129 -78.8092 214° Southwest  Level Estimated
Wed 02:51:00 PM 36.7236 -78.8841 214° Southwest  Level Estimated
Wed 02:52:00 PM 36.6343 -78.9587 214° Southwest  Level Estimated
Wed 02:53:00 PM 36.5450 -79.0332 214° Southwest  Level Estimated
Wed 02:54:00 PM 36.4556 -79.1076 214° Southwest  Level Estimated
Wed 02:55:00 PM 36.3662 -79.1817 214° Southwest  Level Estimated
Wed 02:56:00 PM 36.2767 -79.2557 214° Southwest  Level Estimated
Wed 02:57:00 PM 36.1872 -79.3295 214° Southwest  Level Estimated
Wed 02:58:00 PM 36.0976 -79.4032 214° Southwest  Level Estimated
Wed 02:59:00 PM 36.0080 -79.4767 214° Southwest  Level Estimated
Wed 03:00:00 PM 35.9184 -79.5500 214° Southwest  Level Estimated
Wed 03:01:00 PM 35.8287 -79.6231 213° Southwest  Level Estimated
Wed 03:02:00 PM 35.7389 -79.6961 213° Southwest  Level Estimated
Wed 03:03:00 PM 35.6492 -79.7689 213° Southwest  Level Estimated
Wed 03:04:00 PM 35.5593 -79.8416 213° Southwest  Level Estimated
Wed 03:05:00 PM 35.4695 -79.9141 213° Southwest  Level Estimated
Wed 03:06:00 PM 35.3795 -79.9864 213° Southwest  Level Estimated
Wed 03:07:00 PM 35.2896 -80.0586 213° Southwest  Level Estimated
Wed 03:08:00 PM 35.1996 -80.1306 213° Southwest  Level Estimated
Wed 03:09:00 PM 35.1095 -80.2024 213° Southwest  Level Estimated
Wed 03:10:00 PM 35.0195 -80.2741 213° Southwest  Level Estimated
Wed 03:11:00 PM 34.9293 -80.3456 213° Southwest  Level Estimated
Wed 03:12:00 PM 34.8391 -80.4170 213° Southwest  Level Estimated
Wed 03:13:00 PM 34.7489 -80.4883 213° Southwest  Level Estimated
Wed 03:14:00 PM 34.6587 -80.5593 213° Southwest  Level Estimated
Wed 03:15:00 PM 34.5684 -80.6302 213° Southwest  Level Estimated
Wed 03:16:00 PM 34.4781 -80.7010 213° Southwest  Level Estimated
Wed 03:17:00 PM 34.3877 -80.7716 213° Southwest  Level Estimated
Wed 03:18:00 PM 34.2973 -80.8420 213° Southwest  Level Estimated
Wed 03:19:00 PM 34.2068 -80.9123 213° Southwest  Level Estimated
Wed 03:20:00 PM 34.1163 -80.9825 213° Southwest  Level Estimated
Wed 03:21:00 PM 34.0360 -81.0446 213° Southwest  Level Estimated
Wed 03:22:00 PM 33.9557 -81.1066 213° Southwest  Level Estimated
Wed 03:23:00 PM 33.9388 -81.1195 213° Southwest  Level Estimated
Wed 03:24:00 PM 33.9388 -81.1195 29° Northeast  Level Estimated
Wed 03:25:00 PM 33.9388 -81.1195 29° Northeast  Level Estimated
Wed 03:26:00 PM 33.9388 -81.1195 29° Northeast  Level Estimated
Wed 03:27:00 PM 33.9388 -81.1195 29° Northeast  Level Estimated
Wed 03:28:00 PM 33.9388 -81.1195 29° Northeast  Level Estimated
Wed 03:29:00 PM 33.9388 -81.1195 29° Northeast  Level Estimated
Wed 03:30:00 PM 33.9388 -81.1195 29° Northeast  Level Estimated
Wed 03:31:00 PM 33.9388 -81.1195 29° Northeast  Level Estimated
Wed 03:32:00 PM 33.9388 -81.1195 29° Northeast  Level Estimated
Wed 03:33:00 PM 33.9388 -81.1195 29° Northeast  Level Estimated
Wed 03:34:00 PM 33.9388 -81.1195 29° Northeast  Level Estimated
Wed 03:35:00 PM 33.9388 -81.1195 29° Northeast  Level Estimated
Wed 03:36:00 PM 33.9388 -81.1195 29° Northeast  Level Estimated

Login

Don't have an account? Register now (free) for customized features, flight alerts, and more!